Time;durP1;ratioP1;P1;durP2;ratioP2;P2;SDS_P1;SDS_P2;PMS_P1;PMS_P2;Temp;Humidity;BMP_temperature;BMP_pressure;BME280_temperature;BME280_humidity;BME280_pressure;Samples;Min_cycle;Max_cycle;Signal;HPM_P1;HPM_P2
2023/04/17 00:00:49;;;;;;;16.50;13.57;;;;;;;10.40;100.00;98600.28;4186306;28;20671;-81
2023/04/17 00:02:54;;;;;;;18.37;14.00;;;;;;;10.40;100.00;98595.06;4187637;28;20700;-81
2023/04/17 00:04:58;;;;;;;16.30;13.60;;;;;;;10.42;100.00;98594.06;4184144;28;20671;-81
2023/04/17 00:07:02;;;;;;;14.23;11.87;;;;;;;10.38;100.00;98604.78;4187778;28;20674;-81
2023/04/17 00:09:05;;;;;;;16.07;13.33;;;;;;;10.32;100.00;98597.31;4185367;28;20700;-81
2023/04/17 00:11:08;;;;;;;17.25;13.48;;;;;;;10.30;100.00;98598.31;4186659;28;21045;-81
2023/04/17 00:13:11;;;;;;;16.93;13.77;;;;;;;10.28;100.00;98602.78;4169534;28;20215;-81
2023/04/17 00:15:16;;;;;;;18.33;13.97;;;;;;;10.20;100.00;98594.59;4181077;28;21019;-80
2023/04/17 00:17:19;;;;;;;17.98;13.68;;;;;;;10.21;100.00;98601.47;4184459;28;20627;-81
2023/04/17 00:19:22;;;;;;;17.47;14.40;;;;;;;10.20;100.00;98598.03;4184072;28;20269;-81
2023/04/17 00:21:25;;;;;;;16.43;14.20;;;;;;;10.19;100.00;98593.72;4167846;28;21258;-81
2023/04/17 00:23:28;;;;;;;16.20;12.97;;;;;;;10.20;100.00;98592.00;4185362;28;21250;-81
2023/04/17 00:25:31;;;;;;;16.43;13.70;;;;;;;10.14;100.00;98590.56;4184864;28;21051;-81
2023/04/17 00:27:34;;;;;;;15.13;12.50;;;;;;;10.18;100.00;98592.06;4187534;28;20638;-81
2023/04/17 00:29:37;;;;;;;16.83;13.88;;;;;;;10.23;100.00;98586.59;4170496;28;20636;-81
2023/04/17 00:31:42;;;;;;;16.70;13.20;;;;;;;10.22;100.00;98590.13;4167363;28;20313;-81
2023/04/17 00:33:46;;;;;;;17.47;13.70;;;;;;;10.26;100.00;98592.47;4185552;28;21082;-81
2023/04/17 00:35:49;;;;;;;19.87;14.73;;;;;;;10.24;100.00;98586.50;4171598;28;20637;-81
2023/04/17 00:37:52;;;;;;;17.77;13.93;;;;;;;10.25;100.00;98588.16;4187827;28;21087;-81
2023/04/17 00:39:55;;;;;;;20.50;14.90;;;;;;;10.21;100.00;98581.47;4168382;28;20885;-81
2023/04/17 00:41:58;;;;;;;18.23;14.90;;;;;;;10.17;100.00;98587.78;4185584;28;21015;-81
2023/04/17 00:44:01;;;;;;;21.00;15.43;;;;;;;10.14;100.00;98574.94;4188093;28;21045;-81
2023/04/17 00:46:05;;;;;;;17.70;14.53;;;;;;;10.11;100.00;98585.53;4188473;28;20643;-81
2023/04/17 00:48:12;;;;;;;17.93;14.13;;;;;;;10.07;100.00;98578.84;4184927;28;20624;-81
2023/04/17 00:50:15;;;;;;;18.27;14.60;;;;;;;10.04;100.00;98575.56;4183338;28;20691;-81
2023/04/17 00:52:25;;;;;;;15.73;13.50;;;;;;;10.02;100.00;98567.84;4168606;28;20649;-81
2023/04/17 00:54:28;;;;;;;16.00;12.97;;;;;;;10.04;100.00;98572.94;4168660;28;21060;-81
2023/04/17 00:56:32;;;;;;;18.83;14.10;;;;;;;10.03;100.00;98579.09;4184982;28;20644;-81
2023/04/17 00:58:36;;;;;;;17.50;13.17;;;;;;;10.03;100.00;98574.72;4184815;28;20723;-81
2023/04/17 01:00:39;;;;;;;17.90;14.37;;;;;;;10.08;100.00;98577.06;4168540;28;20635;-81
2023/04/17 01:02:42;;;;;;;19.87;14.30;;;;;;;10.11;100.00;98569.06;4170760;28;20633;-81
2023/04/17 01:04:47;;;;;;;19.37;14.03;;;;;;;10.17;100.00;98573.91;4169557;28;20663;-81
2023/04/17 01:06:50;;;;;;;20.27;15.10;;;;;;;10.19;100.00;98562.47;4186277;28;20625;-81
2023/04/17 01:08:54;;;;;;;18.13;13.80;;;;;;;10.23;100.00;98568.34;4186218;28;21028;-81
2023/04/17 01:10:57;;;;;;;17.40;13.57;;;;;;;10.26;100.00;98569.00;4171363;28;20719;-81
2023/04/17 01:13:03;;;;;;;18.87;14.67;;;;;;;10.22;100.00;98570.09;4192402;28;21067;-81
2023/04/17 01:15:08;;;;;;;19.93;14.40;;;;;;;10.17;100.00;98559.13;4177504;28;20639;-81
2023/04/17 01:17:13;;;;;;;17.73;13.00;;;;;;;10.14;100.00;98555.84;4170389;28;21029;-81
2023/04/17 01:19:16;;;;;;;19.02;13.85;;;;;;;10.11;100.00;98553.44;4201413;28;20632;-81
2023/04/17 01:21:21;;;;;;;19.40;14.82;;;;;;;10.11;100.00;98562.09;4186264;28;20217;-83
2023/04/17 01:23:25;;;;;;;18.60;14.43;;;;;;;10.06;100.00;98555.47;4184252;28;20210;-83
2023/04/17 01:25:30;;;;;;;19.47;14.77;;;;;;;9.98;100.00;98553.31;4182116;28;20635;-83
2023/04/17 01:27:34;;;;;;;21.03;14.70;;;;;;;9.96;100.00;98557.75;4185233;28;20641;-83
2023/04/17 01:29:37;;;;;;;20.87;15.80;;;;;;;10.00;100.00;98563.66;4166854;28;20765;-83
2023/04/17 01:31:40;;;;;;;17.67;14.13;;;;;;;10.00;100.00;98556.66;4184016;28;20646;-83
2023/04/17 01:33:43;;;;;;;19.17;14.93;;;;;;;10.06;100.00;98558.91;4186847;28;20720;-83
2023/04/17 01:35:46;;;;;;;18.43;13.87;;;;;;;10.12;100.00;98555.94;4187238;28;20649;-83
2023/04/17 01:37:49;;;;;;;17.40;13.93;;;;;;;10.18;100.00;98562.53;4191889;28;20704;-83
2023/04/17 01:39:54;;;;;;;19.10;13.60;;;;;;;10.21;100.00;98565.84;4190674;28;21321;-83
2023/04/17 01:41:59;;;;;;;17.70;14.07;;;;;;;10.23;100.00;98558.75;4191004;28;20632;-83
2023/04/17 01:44:03;;;;;;;17.93;14.07;;;;;;;10.26;100.00;98568.16;4168649;28;20701;-83
2023/04/17 01:46:06;;;;;;;19.33;13.87;;;;;;;10.28;100.00;98571.50;4176972;28;20670;-83
2023/04/17 01:48:09;;;;;;;17.93;14.03;;;;;;;10.29;100.00;98568.00;4188632;28;20631;-83
2023/04/17 01:50:13;;;;;;;18.60;15.00;;;;;;;10.27;100.00;98568.06;4189501;28;20681;-83
2023/04/17 01:52:17;;;;;;;20.33;13.50;;;;;;;10.30;100.00;98567.91;4183350;28;20674;-83
2023/04/17 01:54:20;;;;;;;16.50;13.80;;;;;;;10.32;100.00;98573.03;4185174;28;20639;-83
2023/04/17 01:56:23;;;;;;;16.40;13.20;;;;;;;10.35;100.00;98568.44;4174431;28;20624;-83
2023/04/17 01:58:27;;;;;;;16.90;13.80;;;;;;;10.37;100.00;98564.84;4174171;28;20636;-83
2023/04/17 02:00:30;;;;;;;19.90;15.30;;;;;;;10.41;100.00;98575.91;4168935;28;20638;-83
2023/04/17 02:02:34;;;;;;;19.53;14.50;;;;;;;10.43;100.00;98574.03;4171769;28;20637;-83
2023/04/17 02:04:37;;;;;;;17.23;14.17;;;;;;;10.45;100.00;98572.19;4189084;28;20750;-83
2023/04/17 02:06:41;;;;;;;19.87;14.83;;;;;;;10.47;100.00;98565.09;4184256;28;20635;-83
2023/04/17 02:08:44;;;;;;;19.00;13.83;;;;;;;10.49;100.00;98568.44;4187358;28;20648;-83
2023/04/17 02:10:47;;;;;;;18.23;14.60;;;;;;;10.49;100.00;98571.91;4189185;28;20737;-83
2023/04/17 02:12:50;;;;;;;19.63;15.20;;;;;;;10.50;100.00;98573.56;4175036;28;20644;-83
2023/04/17 02:14:59;;;;;;;19.00;14.13;;;;;;;10.52;100.00;98570.88;4166846;28;21266;-83
2023/04/17 02:17:02;;;;;;;17.67;14.17;;;;;;;10.55;100.00;98570.69;4184918;28;20628;-83
2023/04/17 02:19:07;;;;;;;18.63;15.20;;;;;;;10.56;100.00;98561.94;4187632;28;20686;-83
2023/04/17 02:21:11;;;;;;;18.73;14.80;;;;;;;10.58;100.00;98560.91;4168230;28;20692;-83
2023/04/17 02:23:14;;;;;;;18.33;13.93;;;;;;;10.62;100.00;98566.78;4182454;28;20643;-83
2023/04/17 02:25:17;;;;;;;20.97;14.70;;;;;;;10.63;100.00;98568.44;4169280;28;21080;-83
2023/04/17 02:27:20;;;;;;;21.40;16.00;;;;;;;10.65;99.87;98566.59;4172831;28;20630;-83
2023/04/17 02:29:24;;;;;;;16.47;14.10;;;;;;;10.64;99.94;98570.13;4187831;28;20997;-83
2023/04/17 02:31:28;;;;;;;19.83;14.60;;;;;;;10.65;100.00;98569.22;4207787;28;20672;-83
2023/04/17 02:33:32;;;;;;;23.93;16.10;;;;;;;10.67;99.86;98569.94;4176973;28;20656;-83
2023/04/17 02:35:35;;;;;;;20.73;14.50;;;;;;;10.67;99.00;98576.00;4202571;28;20738;-83
2023/04/17 02:37:38;;;;;;;20.37;14.90;;;;;;;10.68;100.00;98571.63;4183115;28;20689;-83
2023/04/17 02:39:41;;;;;;;18.43;14.53;;;;;;;10.69;99.01;98573.28;4183412;28;20666;-83
2023/04/17 02:41:44;;;;;;;18.87;14.10;;;;;;;10.70;99.55;98569.75;4186394;28;20654;-83
2023/04/17 02:43:47;;;;;;;17.97;14.03;;;;;;;10.71;100.00;98572.28;4172820;28;20651;-83
2023/04/17 02:45:52;;;;;;;19.80;14.80;;;;;;;10.71;99.15;98571.44;4168846;28;20659;-83
2023/04/17 02:47:57;;;;;;;19.30;15.27;;;;;;;10.71;99.19;98579.28;4175826;28;21059;-83
2023/04/17 02:50:00;;;;;;;18.95;14.70;;;;;;;10.72;100.00;98573.09;4203213;28;20746;-83
2023/04/17 02:52:04;;;;;;;19.90;15.57;;;;;;;10.72;98.96;98573.97;4187761;28;20220;-83
2023/04/17 02:54:07;;;;;;;23.40;15.30;;;;;;;10.73;99.32;98566.97;4179077;28;20682;-83
2023/04/17 02:56:10;;;;;;;20.47;15.03;;;;;;;10.74;99.87;98564.25;4180032;28;20652;-83
2023/04/17 02:58:13;;;;;;;20.03;15.27;;;;;;;10.75;100.00;98570.31;4189404;28;21410;-83
2023/04/17 03:00:17;;;;;;;19.87;14.63;;;;;;;10.75;99.46;98559.88;4179813;28;20647;-83
2023/04/17 03:02:21;;;;;;;19.23;14.30;;;;;;;10.74;98.94;98555.59;4188328;28;20632;-83
2023/04/17 03:04:26;;;;;;;17.90;13.70;;;;;;;10.76;98.97;98574.59;4189269;28;20620;-83
2023/04/17 03:06:30;;;;;;;17.17;13.60;;;;;;;10.76;99.87;98561.56;4178755;28;20736;-83
2023/04/17 03:08:34;;;;;;;17.50;13.97;;;;;;;10.75;99.21;98575.53;4183471;28;22237;-84
2023/04/17 03:10:38;;;;;;;19.27;14.83;;;;;;;10.75;98.24;98570.31;4187260;28;21229;-83
2023/04/17 03:12:41;;;;;;;16.90;14.00;;;;;;;10.75;98.17;98570.31;4175896;28;21003;-82
2023/04/17 03:14:44;;;;;;;21.80;15.70;;;;;;;10.76;98.71;98577.22;4170929;28;20639;-83
2023/04/17 03:16:47;;;;;;;18.70;13.33;;;;;;;10.75;98.85;98573.78;4171708;28;20640;-83
2023/04/17 03:18:50;;;;;;;19.07;14.73;;;;;;;10.74;99.17;98572.09;4172885;28;21204;-83
2023/04/17 03:20:55;;;;;;;16.27;13.73;;;;;;;10.72;99.00;98576.56;4182773;28;20631;-83
2023/04/17 03:22:58;;;;;;;17.83;13.97;;;;;;;10.72;98.95;98579.19;4187037;28;20639;-83
2023/04/17 03:25:01;;;;;;;17.53;14.20;;;;;;;10.72;98.49;98573.97;4177072;28;20628;-83
2023/04/17 03:27:11;;;;;;;21.67;14.93;;;;;;;10.70;98.97;98570.59;4186575;28;20638;-83
2023/04/17 03:29:17;;;;;;;19.83;15.10;;;;;;;10.71;99.71;98574.88;4182141;28;20628;-83
2023/04/17 03:31:22;;;;;;;18.73;15.00;;;;;;;10.69;100.00;98570.69;4169986;28;20636;-83
2023/04/17 03:33:26;;;;;;;18.70;14.37;;;;;;;10.64;98.96;98568.34;4171199;28;20653;-83
2023/04/17 03:35:32;;;;;;;21.80;16.20;;;;;;;10.66;99.85;98573.47;4188012;28;20627;-83
2023/04/17 03:37:41;;;;;;;17.73;13.77;;;;;;;10.66;99.08;98571.72;4184770;28;20686;-83
2023/04/17 03:39:44;;;;;;;19.10;15.00;;;;;;;10.68;100.00;98571.63;4175658;28;21202;-83
2023/04/17 03:41:47;;;;;;;20.03;15.70;;;;;;;10.68;99.93;98567.25;4185287;28;20639;-83
2023/04/17 03:43:50;;;;;;;21.57;15.30;;;;;;;10.70;99.41;98577.59;4188042;28;20993;-83
2023/04/17 03:45:53;;;;;;;20.10;15.50;;;;;;;10.71;99.54;98576.66;4174969;28;21015;-83
2023/04/17 03:47:57;;;;;;;18.43;14.37;;;;;;;10.71;99.56;98574.88;4189387;28;20662;-83
2023/04/17 03:50:00;;;;;;;22.20;14.17;;;;;;;10.72;100.00;98576.56;4186298;28;20657;-83
2023/04/17 03:52:10;;;;;;;17.80;14.17;;;;;;;10.71;99.71;98576.66;4189241;28;21140;-83
2023/04/17 03:54:14;;;;;;;18.53;13.80;;;;;;;10.69;99.62;98573.28;4168567;28;20673;-83
2023/04/17 03:56:20;;;;;;;19.77;14.90;;;;;;;10.69;99.95;98578.50;4189318;28;20612;-83
2023/04/17 03:58:23;;;;;;;18.03;13.83;;;;;;;10.68;99.15;98582.06;4167828;28;20629;-83
2023/04/17 04:00:27;;;;;;;18.73;14.50;;;;;;;10.68;98.25;98580.28;4186333;28;20663;-83
2023/04/17 04:02:35;;;;;;;17.63;12.90;;;;;;;10.69;99.43;98581.97;4187289;28;20634;-83
2023/04/17 04:04:39;;;;;;;18.33;14.47;;;;;;;10.70;100.00;98581.03;4195843;28;20667;-83
2023/04/17 04:06:48;;;;;;;19.57;15.37;;;;;;;10.70;98.98;98580.19;4171491;28;20968;-83
2023/04/17 04:08:54;;;;;;;15.67;13.10;;;;;;;10.69;98.22;98581.97;4171999;28;20653;-83
2023/04/17 04:10:59;;;;;;;17.60;13.40;;;;;;;10.71;98.46;98584.50;4189431;28;20635;-83
2023/04/17 04:13:09;;;;;;;16.60;13.53;;;;;;;10.71;99.79;98582.72;4173907;28;20626;-83
2023/04/17 04:15:13;;;;;;;19.37;13.90;;;;;;;10.72;98.96;98587.00;4186295;28;20634;-83
2023/04/17 04:17:16;;;;;;;19.40;14.00;;;;;;;10.74;99.57;98582.53;4172725;28;20667;-83
2023/04/17 04:19:19;;;;;;;16.63;12.80;;;;;;;10.75;99.70;98583.34;4193798;28;21067;-83
2023/04/17 04:21:23;;;;;;;21.70;14.60;;;;;;;10.75;98.15;98581.59;4175965;28;20624;-83
2023/04/17 04:23:29;;;;;;;20.90;13.90;;;;;;;10.76;97.96;98593.69;4172244;28;20632;-83
2023/04/17 04:25:32;;;;;;;19.77;13.83;;;;;;;10.74;97.45;98587.75;4187002;28;20671;-83
2023/04/17 04:27:55;;;;;;;20.27;14.67;;;;;;;10.75;99.32;98586.81;4183003;28;20712;-83
2023/04/17 04:30:00;;;;;;;15.87;12.43;;;;;;;10.76;98.43;98590.25;4182216;28;20645;-83
2023/04/17 04:32:08;;;;;;;29.30;21.30;;;;;;;10.73;98.28;98596.50;4172803;28;20635;-83
2023/04/17 04:34:16;;;;;;;20.90;15.60;;;;;;;10.66;98.26;98584.78;4187564;28;20667;-83
2023/04/17 04:36:20;;;;;;;21.00;15.30;;;;;;;10.62;96.80;98588.47;4165950;28;21230;-83
2023/04/17 04:38:31;;;;;;;23.57;18.47;;;;;;;10.58;98.17;98583.53;4167602;28;21509;-83
2023/04/17 04:40:48;;;;;;;21.10;15.80;;;;;;;10.56;98.60;98593.25;4186667;28;20673;-83
2023/04/17 04:42:55;;;;;;;21.13;15.70;;;;;;;10.55;97.89;98581.13;4173220;28;20635;-83
2023/04/17 04:45:05;;;;;;;19.00;14.70;;;;;;;10.58;98.04;98586.97;4201297;28;20651;-83
2023/04/17 04:47:09;;;;;;;20.03;15.40;;;;;;;10.59;98.34;98591.28;4186594;28;21043;-83
2023/04/17 04:49:12;;;;;;;18.27;13.70;;;;;;;10.57;98.38;98592.28;4186090;28;20636;-83
2023/04/17 04:51:17;;;;;;;21.50;14.40;;;;;;;10.55;98.47;98589.78;4163879;28;21275;-83
2023/04/17 04:53:22;;;;;;;20.00;14.53;;;;;;;10.55;98.23;98591.56;4174466;28;20644;-83
2023/04/17 04:55:30;;;;;;;18.40;12.73;;;;;;;10.56;99.19;98593.25;4186221;28;20619;-83
2023/04/17 04:57:35;;;;;;;22.00;14.40;;;;;;;10.55;97.73;98591.56;4171089;28;20632;-83
2023/04/17 04:59:39;;;;;;;20.67;14.73;;;;;;;10.53;98.74;98596.03;4186341;28;21008;-83
2023/04/17 05:02:01;;;;;;;18.30;14.20;;;;;;;10.58;99.57;98601.81;4184014;28;20635;-83
2023/04/17 05:04:04;;;;;;;21.47;15.20;;;;;;;10.61;99.11;98605.06;4188291;28;20650;-83
2023/04/17 05:06:10;;;;;;;21.63;15.00;;;;;;;10.61;99.42;98602.44;4187493;28;20668;-83
2023/04/17 05:08:17;;;;;;;17.27;13.60;;;;;;;10.62;98.83;98608.53;4164719;28;20672;-83
2023/04/17 05:10:30;;;;;;;21.10;14.73;;;;;;;10.62;98.30;98611.13;4188999;28;20645;-83
2023/04/17 05:12:36;;;;;;;18.30;13.73;;;;;;;10.63;97.55;98611.03;4191652;28;20638;-83
2023/04/17 05:14:43;;;;;;;16.50;13.77;;;;;;;10.65;98.66;98610.94;4184582;28;20655;-83
2023/04/17 05:16:46;;;;;;;16.40;13.40;;;;;;;10.62;99.25;98611.97;4168424;28;20625;-83
2023/04/17 05:18:49;;;;;;;18.70;13.90;;;;;;;10.64;97.88;98617.09;4198158;28;21018;-83
2023/04/17 05:20:59;;;;;;;19.40;14.57;;;;;;;10.66;99.72;98613.47;4174855;28;20639;-83
2023/04/17 05:23:04;;;;;;;20.60;16.03;;;;;;;10.66;99.78;98617.81;4191757;28;20639;-83
2023/04/17 05:25:08;;;;;;;17.47;13.90;;;;;;;10.61;98.35;98612.06;4188962;28;21463;-83
2023/04/17 05:27:11;;;;;;;17.90;14.07;;;;;;;10.55;98.10;98609.81;4188846;28;20730;-83
2023/04/17 05:29:14;;;;;;;19.17;13.50;;;;;;;10.48;98.05;98608.50;4186262;28;20625;-83
2023/04/17 05:31:20;;;;;;;15.40;12.50;;;;;;;10.44;99.25;98609.63;4189363;28;21182;-83
2023/04/17 05:33:24;;;;;;;18.00;13.60;;;;;;;10.37;99.51;98613.50;4184796;28;21144;-83
2023/04/17 05:35:30;;;;;;;19.63;13.10;;;;;;;10.28;100.00;98614.03;4171875;28;20667;-83
2023/04/17 05:37:34;;;;;;;19.10;13.55;;;;;;;10.17;100.00;98611.25;4190429;28;20667;-83
2023/04/17 05:39:37;;;;;;;18.07;12.87;;;;;;;10.13;100.00;98614.97;4180872;28;20538;-84
2023/04/17 05:41:43;;;;;;;18.10;13.90;;;;;;;10.09;100.00;98613.47;4169220;28;20683;-82
2023/04/17 05:43:46;;;;;;;17.20;12.90;;;;;;;10.04;100.00;98612.91;4181759;28;20648;-80
2023/04/17 05:45:49;;;;;;;16.50;12.83;;;;;;;9.96;100.00;98622.91;4176132;28;20646;-80
2023/04/17 05:47:54;;;;;;;17.60;12.13;;;;;;;9.84;100.00;98610.53;4202870;28;20642;-80
2023/04/17 05:49:58;;;;;;;16.63;12.20;;;;;;;9.76;100.00;98614.53;4183702;28;21150;-80
2023/04/17 05:52:04;;;;;;;16.83;12.77;;;;;;;9.78;100.00;98617.03;4192757;28;20647;-81
2023/04/17 05:54:09;;;;;;;21.50;15.20;;;;;;;9.81;100.00;98624.69;4190392;28;20639;-81
2023/04/17 05:56:14;;;;;;;17.20;12.80;;;;;;;9.84;100.00;98621.91;4207934;28;20646;-80
2023/04/17 05:58:18;;;;;;;17.47;12.90;;;;;;;9.85;100.00;98620.03;4183831;28;21069;-80
2023/04/17 06:00:29;;;;;;;16.10;12.33;;;;;;;9.85;100.00;98624.44;4172801;28;21025;-80
2023/04/17 06:02:39;;;;;;;18.30;13.17;;;;;;;9.82;100.00;98623.75;4174436;28;21066;-80
2023/04/17 06:04:44;;;;;;;16.97;12.37;;;;;;;9.82;100.00;98624.59;4189005;28;21353;-80
2023/04/17 06:06:48;;;;;;;19.83;13.43;;;;;;;9.84;100.00;98630.56;4191434;28;20654;-81
2023/04/17 06:08:53;;;;;;;17.33;12.25;;;;;;;9.85;100.00;98630.47;4188013;28;20675;-81
2023/04/17 06:11:00;;;;;;;15.70;11.60;;;;;;;9.82;100.00;98634.16;4186213;28;20209;-80
2023/04/17 06:13:03;;;;;;;16.38;11.90;;;;;;;9.83;100.00;98631.47;4191488;28;20337;-80
2023/04/17 06:15:08;;;;;;;17.58;12.00;;;;;;;9.85;100.00;98627.03;4187425;28;20221;-80
2023/04/17 06:17:12;;;;;;;17.85;13.52;;;;;;;9.88;100.00;98630.28;4187783;28;20257;-80
2023/04/17 06:19:16;;;;;;;18.93;12.60;;;;;;;9.94;100.00;98637.78;4182928;28;20198;-80
2023/04/17 06:21:21;;;;;;;16.13;11.40;;;;;;;9.91;100.00;98637.94;4190317;28;20674;-81
2023/04/17 06:23:24;;;;;;;15.80;11.27;;;;;;;9.99;100.00;98642.75;4192425;28;20262;-81
2023/04/17 06:25:27;;;;;;;16.63;11.50;;;;;;;10.06;100.00;98639.69;4194475;28;20923;-80
2023/04/17 06:27:32;;;;;;;15.67;11.60;;;;;;;10.11;100.00;98639.44;4191276;28;20721;-81
2023/04/17 06:29:39;;;;;;;16.38;12.07;;;;;;;9.99;100.00;98643.56;4183732;28;20625;-81
2023/04/17 06:31:43;;;;;;;16.37;12.30;;;;;;;10.00;100.00;98645.25;4177261;28;20216;-80
2023/04/17 06:33:48;;;;;;;16.63;12.02;;;;;;;10.05;100.00;98647.59;4174126;28;20631;-81
2023/04/17 06:35:54;;;;;;;17.17;12.25;;;;;;;10.05;100.00;98645.81;4176626;28;20470;-81
2023/04/17 06:38:10;;;;;;;15.93;11.55;;;;;;;10.11;100.00;98658.50;4191791;28;20213;-80
2023/04/17 06:40:14;;;;;;;16.37;13.00;;;;;;;10.16;100.00;98646.03;4186151;28;20267;-80
2023/04/17 06:42:17;;;;;;;16.02;11.55;;;;;;;10.23;100.00;98652.59;4174084;28;20645;-80
2023/04/17 06:44:21;;;;;;;15.50;11.30;;;;;;;10.26;100.00;98641.16;4174398;28;20662;-80
2023/04/17 06:46:24;;;;;;;16.85;11.20;;;;;;;10.30;100.00;98653.06;4171654;28;20628;-80
2023/04/17 06:48:28;;;;;;;14.80;10.97;;;;;;;10.26;100.00;98647.19;4187232;28;20201;-80
2023/04/17 06:50:31;;;;;;;13.00;10.10;;;;;;;10.28;100.00;98652.31;4190813;28;20663;-80
2023/04/17 06:52:34;;;;;;;14.23;10.80;;;;;;;10.29;100.00;98649.63;4165773;28;20642;-80
2023/04/17 06:54:39;;;;;;;15.23;10.20;;;;;;;10.36;100.00;98656.16;4189164;28;20208;-80
2023/04/17 06:56:42;;;;;;;13.30;10.35;;;;;;;10.44;100.00;98649.56;4186029;28;20656;-80
2023/04/17 06:58:45;;;;;;;12.87;9.67;;;;;;;10.46;100.00;98662.50;4187137;28;20201;-81
2023/04/17 07:00:48;;;;;;;11.73;9.50;;;;;;;10.50;100.00;98658.81;4184718;28;20971;-80
2023/04/17 07:02:51;;;;;;;12.87;9.67;;;;;;;10.50;100.00;98661.41;4184487;28;20627;-80
2023/04/17 07:04:55;;;;;;;11.43;8.47;;;;;;;10.43;100.00;98660.06;4181507;28;20667;-80
2023/04/17 07:06:58;;;;;;;12.27;9.40;;;;;;;10.48;100.00;98660.66;4181300;28;20743;-80
2023/04/17 07:09:01;;;;;;;11.47;9.07;;;;;;;10.60;100.00;98659.91;4184085;28;20209;-80
2023/04/17 07:11:06;;;;;;;12.30;9.57;;;;;;;10.69;100.00;98667.19;4186396;28;20623;-80
2023/04/17 07:13:09;;;;;;;12.38;9.32;;;;;;;10.73;100.00;98674.75;4171230;28;21348;-81
2023/04/17 07:15:12;;;;;;;12.07;9.30;;;;;;;10.75;100.00;98672.06;4184427;28;20251;-80
2023/04/17 07:17:15;;;;;;;13.10;9.37;;;;;;;10.84;100.00;98675.81;4172281;28;20636;-80
2023/04/17 07:19:18;;;;;;;10.17;8.10;;;;;;;10.87;100.00;98666.97;4190201;28;20630;-80
2023/04/17 07:21:21;;;;;;;9.63;7.90;;;;;;;10.86;98.93;98676.53;4187783;28;20693;-81
2023/04/17 07:23:25;;;;;;;11.20;8.30;;;;;;;10.92;100.00;98681.38;4186190;28;20685;-82
2023/04/17 07:25:28;;;;;;;10.50;8.13;;;;;;;10.99;100.00;98682.72;4186980;28;21060;-81
2023/04/17 07:27:32;;;;;;;11.43;8.97;;;;;;;11.03;98.80;98675.53;4184922;28;20697;-81
2023/04/17 07:29:36;;;;;;;9.60;8.10;;;;;;;11.05;98.33;98682.34;4166510;28;20649;-81
2023/04/17 07:31:39;;;;;;;8.10;6.17;;;;;;;10.93;96.73;98675.25;4186446;28;20665;-81
2023/04/17 07:33:43;;;;;;;8.13;6.60;;;;;;;10.92;98.60;98676.16;4189558;28;20693;-81
2023/04/17 07:35:47;;;;;;;6.93;6.20;;;;;;;10.94;98.88;98684.72;4183332;28;20746;-81
2023/04/17 07:37:50;;;;;;;10.10;7.47;;;;;;;11.01;98.34;98686.06;4181326;28;20693;-81
2023/04/17 07:39:53;;;;;;;9.87;7.87;;;;;;;11.04;98.01;98685.88;4183993;28;20668;-81
2023/04/17 07:41:56;;;;;;;9.13;7.30;;;;;;;11.10;97.81;98692.50;4179746;28;20639;-80
2023/04/17 07:44:02;;;;;;;8.90;6.20;;;;;;;11.08;97.11;98687.38;4182108;28;20663;-80
2023/04/17 07:46:05;;;;;;;8.70;7.80;;;;;;;11.10;96.83;98690.72;4183206;28;20627;-81
2023/04/17 07:48:09;;;;;;;8.80;7.00;;;;;;;11.06;96.25;98686.59;4169640;28;20672;-81
2023/04/17 07:50:12;;;;;;;10.27;7.50;;;;;;;11.07;97.32;98684.84;4183829;28;20654;-81
2023/04/17 07:52:16;;;;;;;9.30;7.87;;;;;;;11.01;97.96;98683.44;4182583;28;21048;-81
2023/04/17 07:54:20;;;;;;;10.00;8.60;;;;;;;11.03;96.91;98689.41;4181010;28;20659;-81
2023/04/17 07:56:23;;;;;;;9.80;7.87;;;;;;;11.04;97.02;98688.47;4167512;28;20659;-81
2023/04/17 07:58:26;;;;;;;13.33;8.97;;;;;;;11.11;98.05;98691.53;4180043;28;20647;-81
2023/04/17 08:00:31;;;;;;;9.63;7.43;;;;;;;11.11;98.92;98696.78;4184863;28;20647;-81
2023/04/17 08:02:34;;;;;;;9.70;8.40;;;;;;;11.09;96.93;98685.59;4183298;28;20648;-81
2023/04/17 08:04:38;;;;;;;8.90;7.77;;;;;;;11.08;98.22;98695.22;4178406;28;21247;-81
2023/04/17 08:06:42;;;;;;;9.40;7.67;;;;;;;11.13;96.47;98687.91;4181727;28;20638;-80
2023/04/17 08:08:46;;;;;;;9.00;7.90;;;;;;;11.18;97.76;98698.09;4161305;28;20624;-81
2023/04/17 08:10:49;;;;;;;11.70;8.23;;;;;;;11.09;96.75;98690.81;4188125;28;20619;-80
2023/04/17 08:12:53;;;;;;;10.03;8.40;;;;;;;11.15;95.88;98695.66;4184609;28;20649;-83
2023/04/17 08:14:56;;;;;;;9.90;7.80;;;;;;;11.18;98.59;98695.47;4201712;28;20690;-82
2023/04/17 08:17:01;;;;;;;10.07;7.83;;;;;;;11.24;97.40;98698.53;4184859;28;20652;-82
2023/04/17 08:19:04;;;;;;;10.80;8.00;;;;;;;11.26;97.58;98701.91;4166847;28;20706;-82
2023/04/17 08:21:08;;;;;;;9.87;8.00;;;;;;;11.28;98.10;98705.28;4180947;28;20636;-82
2023/04/17 08:23:12;;;;;;;10.23;8.13;;;;;;;11.31;97.77;98712.91;4180254;28;20734;-82
2023/04/17 08:25:15;;;;;;;10.00;7.93;;;;;;;11.21;97.10;98703.13;4182276;28;20766;-82
2023/04/17 08:27:18;;;;;;;9.60;8.10;;;;;;;11.22;95.53;98710.03;4166362;28;20668;-81
2023/04/17 08:29:21;;;;;;;8.60;6.90;;;;;;;11.18;96.42;98698.09;4184315;28;20654;-82
2023/04/17 08:31:25;;;;;;;9.13;7.93;;;;;;;11.17;95.93;98705.09;4177268;28;20876;-82
2023/04/17 08:33:30;;;;;;;10.47;7.60;;;;;;;11.12;95.67;98709.72;4161301;28;20641;-82
2023/04/17 08:35:33;;;;;;;9.20;7.80;;;;;;;11.05;96.50;98705.84;4183124;28;20639;-82
2023/04/17 08:37:36;;;;;;;8.87;7.60;;;;;;;11.00;97.14;98714.84;4187530;28;20659;-82
2023/04/17 08:39:39;;;;;;;9.10;7.87;;;;;;;11.04;98.16;98706.75;4205226;28;20628;-82
2023/04/17 08:41:47;;;;;;;9.07;7.83;;;;;;;11.12;98.15;98706.28;4177056;28;20677;-82
2023/04/17 08:43:52;;;;;;;10.43;8.50;;;;;;;11.18;97.15;98709.34;4169766;28;20620;-82
2023/04/17 08:45:56;;;;;;;10.07;8.07;;;;;;;11.18;97.88;98711.97;4200480;28;20637;-82
2023/04/17 08:47:59;;;;;;;9.73;7.90;;;;;;;11.26;97.99;98716.72;4191031;28;20632;-82
2023/04/17 08:50:08;;;;;;;10.70;8.43;;;;;;;11.24;95.75;98716.00;4186732;28;20696;-82
2023/04/17 08:52:12;;;;;;;9.33;7.53;;;;;;;11.12;97.78;98714.13;4174911;28;20746;-82
2023/04/17 08:54:15;;;;;;;10.83;8.37;;;;;;;11.13;97.82;98719.25;4189328;28;20639;-82
2023/04/17 08:56:18;;;;;;;12.00;9.60;;;;;;;11.16;97.03;98715.63;4183701;28;21313;-82
2023/04/17 08:58:24;;;;;;;10.17;8.23;;;;;;;11.16;96.49;98716.47;4171273;28;20648;-82
2023/04/17 09:00:32;;;;;;;11.33;9.07;;;;;;;11.21;95.44;98718.78;4170919;28;21852;-82
2023/04/17 09:02:51;;;;;;;11.47;8.90;;;;;;;11.09;96.48;98720.34;4170654;28;20723;-81
2023/04/17 09:04:54;;;;;;;11.80;9.10;;;;;;;11.12;97.23;98716.72;4173029;28;20680;-82
2023/04/17 09:06:59;;;;;;;9.70;8.43;;;;;;;11.17;96.58;98714.66;4181232;28;20767;-81
2023/04/17 09:09:03;;;;;;;11.17;9.67;;;;;;;11.16;97.41;98718.25;4191729;28;20627;-82
2023/04/17 09:11:16;;;;;;;15.23;9.70;;;;;;;11.24;96.86;98718.59;4190180;28;20638;-81
2023/04/17 09:13:21;;;;;;;12.33;9.63;;;;;;;11.32;96.56;98719.78;4171322;28;20675;-81
2023/04/17 09:15:24;;;;;;;14.57;10.40;;;;;;;11.44;96.25;98717.28;4187558;28;22374;-82
2023/04/17 09:17:36;;;;;;;13.97;10.20;;;;;;;11.58;97.14;98727.75;4172722;28;20661;-82
2023/04/17 09:20:06;;;;;;;11.70;9.20;;;;;;;11.69;94.89;98720.06;4169071;28;20674;-82
2023/04/17 09:22:21;;;;;;;11.83;9.03;;;;;;;11.74;95.06;98728.44;4187424;28;21719;-82
2023/04/17 09:24:33;;;;;;;12.90;10.10;;;;;;;11.83;95.58;98733.09;4182764;28;20661;-82
2023/04/17 09:26:37;;;;;;;10.87;9.70;;;;;;;11.88;95.57;98729.28;4185467;28;20660;-82
2023/04/17 09:28:42;;;;;;;11.10;9.30;;;;;;;11.89;94.95;98725.75;4182042;28;20635;-82
2023/04/17 09:30:45;;;;;;;11.10;9.43;;;;;;;11.90;93.91;98729.19;4183698;28;20692;-82
2023/04/17 09:32:48;;;;;;;13.13;10.60;;;;;;;11.92;95.21;98724.69;4182950;28;21059;-82